sensor_id;sensor_type;location;lat;lon;timestamp;pressure;altitude;pressure_sealevel;temperature;humidity
62103;BME280;48077;48.104;11.702;2023-02-17T00:02:06;96351.38;;;4.43;66.41
62103;BME280;48077;48.104;11.702;2023-02-17T00:04:31;96358.66;;;4.41;66.33
62103;BME280;48077;48.104;11.702;2023-02-17T00:06:55;96347.97;;;4.34;66.27
62103;BME280;48077;48.104;11.702;2023-02-17T00:09:18;96332.75;;;4.36;65.99
62103;BME280;48077;48.104;11.702;2023-02-17T00:11:42;96350.19;;;4.45;65.81
62103;BME280;48077;48.104;11.702;2023-02-17T00:14:05;96337.41;;;4.34;65.93
62103;BME280;48077;48.104;11.702;2023-02-17T00:16:30;96347.75;;;4.44;65.86
62103;BME280;48077;48.104;11.702;2023-02-17T00:18:58;96354.84;;;4.43;66.14
62103;BME280;48077;48.104;11.702;2023-02-17T00:21:25;96340.16;;;4.41;65.79
62103;BME280;48077;48.104;11.702;2023-02-17T00:23:51;96357.47;;;4.43;65.78
62103;BME280;48077;48.104;11.702;2023-02-17T00:26:15;96341.16;;;4.40;65.44
62103;BME280;48077;48.104;11.702;2023-02-17T00:28:39;96342.63;;;4.42;65.28
62103;BME280;48077;48.104;11.702;2023-02-17T00:31:12;96343.13;;;4.46;65.46
62103;BME280;48077;48.104;11.702;2023-02-17T00:33:36;96334.88;;;4.41;65.77
62103;BME280;48077;48.104;11.702;2023-02-17T00:36:14;96348.69;;;4.51;66.14
62103;BME280;48077;48.104;11.702;2023-02-17T00:38:39;96347.22;;;4.49;65.19
62103;BME280;48077;48.104;11.702;2023-02-17T00:41:03;96350.34;;;4.52;65.42
62103;BME280;48077;48.104;11.702;2023-02-17T00:43:27;96347.88;;;4.51;65.38
62103;BME280;48077;48.104;11.702;2023-02-17T00:45:50;96339.47;;;4.47;65.51
62103;BME280;48077;48.104;11.702;2023-02-17T00:48:13;96351.34;;;4.51;65.21
62103;BME280;48077;48.104;11.702;2023-02-17T00:50:37;96355.44;;;4.54;65.38
62103;BME280;48077;48.104;11.702;2023-02-17T00:53:00;96333.53;;;4.45;65.19
62103;BME280;48077;48.104;11.702;2023-02-17T00:55:23;96339.34;;;4.40;65.38
62103;BME280;48077;48.104;11.702;2023-02-17T00:57:48;96325.97;;;4.42;65.21
62103;BME280;48077;48.104;11.702;2023-02-17T01:00:12;96339.31;;;4.49;65.44
62103;BME280;48077;48.104;11.702;2023-02-17T01:02:35;96330.06;;;4.44;65.41
62103;BME280;48077;48.104;11.702;2023-02-17T01:04:59;96334.84;;;4.49;65.24
62103;BME280;48077;48.104;11.702;2023-02-17T01:07:22;96343.72;;;4.56;65.31
62103;BME280;48077;48.104;11.702;2023-02-17T01:09:45;96340.59;;;4.53;65.84
62103;BME280;48077;48.104;11.702;2023-02-17T01:12:11;96333.19;;;4.48;65.65
62103;BME280;48077;48.104;11.702;2023-02-17T01:14:34;96341.91;;;4.57;65.60
62103;BME280;48077;48.104;11.702;2023-02-17T01:16:57;96329.22;;;4.52;65.17
62103;BME280;48077;48.104;11.702;2023-02-17T01:19:21;96346.66;;;4.61;64.81
62103;BME280;48077;48.104;11.702;2023-02-17T01:21:44;96329.03;;;4.54;64.66
62103;BME280;48077;48.104;11.702;2023-02-17T01:24:08;96344.38;;;4.58;64.65
62103;BME280;48077;48.104;11.702;2023-02-17T01:26:33;96340.56;;;4.61;64.79
62103;BME280;48077;48.104;11.702;2023-02-17T01:28:57;96307.00;;;4.38;64.02
62103;BME280;48077;48.104;11.702;2023-02-17T01:31:24;96330.53;;;4.56;64.44
62103;BME280;48077;48.104;11.702;2023-02-17T01:33:52;96328.38;;;4.52;64.33
62103;BME280;48077;48.104;11.702;2023-02-17T01:36:17;96312.56;;;4.43;63.83
62103;BME280;48077;48.104;11.702;2023-02-17T01:38:41;96325.28;;;4.48;64.63
62103;BME280;48077;48.104;11.702;2023-02-17T01:41:06;96327.31;;;4.38;65.07
62103;BME280;48077;48.104;11.702;2023-02-17T01:43:30;96320.41;;;4.29;65.08
62103;BME280;48077;48.104;11.702;2023-02-17T01:46:01;96314.88;;;4.15;64.98
62103;BME280;48077;48.104;11.702;2023-02-17T01:48:38;96328.22;;;4.22;65.27
62103;BME280;48077;48.104;11.702;2023-02-17T01:51:13;96312.28;;;4.07;65.46
62103;BME280;48077;48.104;11.702;2023-02-17T01:53:48;96320.03;;;4.09;65.71
62103;BME280;48077;48.104;11.702;2023-02-17T01:56:14;96327.09;;;4.08;65.82
62103;BME280;48077;48.104;11.702;2023-02-17T01:58:42;96314.94;;;3.99;65.74
62103;BME280;48077;48.104;11.702;2023-02-17T02:01:07;96305.56;;;3.96;65.58
62103;BME280;48077;48.104;11.702;2023-02-17T02:03:33;96322.16;;;4.13;65.48
62103;BME280;48077;48.104;11.702;2023-02-17T02:06:00;96316.06;;;4.13;65.33
62103;BME280;48077;48.104;11.702;2023-02-17T02:08:28;96311.72;;;4.20;64.95
62103;BME280;48077;48.104;11.702;2023-02-17T02:10:56;96304.28;;;4.23;64.52
62103;BME280;48077;48.104;11.702;2023-02-17T02:13:20;96313.31;;;4.29;64.43
62103;BME280;48077;48.104;11.702;2023-02-17T02:15:58;96318.91;;;4.34;65.05
62103;BME280;48077;48.104;11.702;2023-02-17T02:18:40;96300.28;;;4.28;64.50
62103;BME280;48077;48.104;11.702;2023-02-17T02:24:10;96316.91;;;4.36;64.78
62103;BME280;48077;48.104;11.702;2023-02-17T02:27:01;96318.91;;;4.34;65.23
62103;BME280;48077;48.104;11.702;2023-02-17T02:29:58;96316.25;;;4.34;65.30
62103;BME280;48077;48.104;11.702;2023-02-17T02:32:40;96314.59;;;4.33;65.46
62103;BME280;48077;48.104;11.702;2023-02-17T02:37:45;96330.97;;;4.29;66.28
62103;BME280;48077;48.104;11.702;2023-02-17T02:40:09;96298.06;;;4.08;66.29
62103;BME280;48077;48.104;11.702;2023-02-17T02:42:34;96328.69;;;4.25;66.44
62103;BME280;48077;48.104;11.702;2023-02-17T02:44:58;96313.06;;;4.16;66.38
62103;BME280;48077;48.104;11.702;2023-02-17T02:47:46;96332.81;;;4.28;66.75
62103;BME280;48077;48.104;11.702;2023-02-17T02:50:57;96321.75;;;4.24;66.05
62103;BME280;48077;48.104;11.702;2023-02-17T02:58:25;96313.00;;;4.24;67.03
62103;BME280;48077;48.104;11.702;2023-02-17T03:00:58;96319.72;;;4.35;66.92
62103;BME280;48077;48.104;11.702;2023-02-17T03:03:59;96312.44;;;4.37;67.55
62103;BME280;48077;48.104;11.702;2023-02-17T03:06:55;96312.44;;;4.37;68.94
62103;BME280;48077;48.104;11.702;2023-02-17T03:09:25;96310.16;;;4.34;69.69
62103;BME280;48077;48.104;11.702;2023-02-17T03:11:49;96301.94;;;4.29;70.02
62103;BME280;48077;48.104;11.702;2023-02-17T03:14:17;96305.81;;;4.41;69.42
62103;BME280;48077;48.104;11.702;2023-02-17T03:16:41;96304.31;;;4.46;69.20
62103;BME280;48077;48.104;11.702;2023-02-17T03:19:09;96300.50;;;4.49;69.21
62103;BME280;48077;48.104;11.702;2023-02-17T03:21:44;96300.59;;;4.56;68.21
62103;BME280;48077;48.104;11.702;2023-02-17T03:24:09;96296.81;;;4.58;67.43
62103;BME280;48077;48.104;11.702;2023-02-17T03:26:32;96283.88;;;4.63;66.28
62103;BME280;48077;48.104;11.702;2023-02-17T03:28:56;96297.00;;;4.80;65.86
62103;BME280;48077;48.104;11.702;2023-02-17T03:31:19;96296.13;;;4.88;65.77
62103;BME280;48077;48.104;11.702;2023-02-17T03:33:43;96282.53;;;4.91;64.96
62103;BME280;48077;48.104;11.702;2023-02-17T03:36:06;96282.47;;;4.99;64.71
62103;BME280;48077;48.104;11.702;2023-02-17T03:38:32;96276.00;;;5.01;64.45
62103;BME280;48077;48.104;11.702;2023-02-17T03:40:55;96281.22;;;5.10;64.12
62103;BME280;48077;48.104;11.702;2023-02-17T03:43:19;96290.44;;;5.14;64.05
62103;BME280;48077;48.104;11.702;2023-02-17T03:45:42;96286.97;;;5.13;63.70
62103;BME280;48077;48.104;11.702;2023-02-17T03:48:05;96285.13;;;5.14;64.00
62103;BME280;48077;48.104;11.702;2023-02-17T03:50:29;96271.16;;;5.05;63.73
62103;BME280;48077;48.104;11.702;2023-02-17T03:52:53;96286.09;;;5.21;63.65
62103;BME280;48077;48.104;11.702;2023-02-17T03:55:16;96290.19;;;5.23;63.24
62103;BME280;48077;48.104;11.702;2023-02-17T03:57:40;96288.81;;;5.27;63.16
62103;BME280;48077;48.104;11.702;2023-02-17T04:00:05;96279.22;;;5.26;63.25
62103;BME280;48077;48.104;11.702;2023-02-17T04:02:28;96284.75;;;5.40;62.47
62103;BME280;48077;48.104;11.702;2023-02-17T04:04:55;96265.13;;;5.34;62.33
62103;BME280;48077;48.104;11.702;2023-02-17T04:07:18;96283.81;;;5.47;61.69
62103;BME280;48077;48.104;11.702;2023-02-17T04:09:41;96282.53;;;5.58;61.18
62103;BME280;48077;48.104;11.702;2023-02-17T04:12:05;96265.13;;;5.49;61.33
62103;BME280;48077;48.104;11.702;2023-02-17T04:14:28;96261.03;;;5.46;61.60
62103;BME280;48077;48.104;11.702;2023-02-17T04:16:52;96275.53;;;5.51;61.24
62103;BME280;48077;48.104;11.702;2023-02-17T04:19:15;96283.38;;;5.59;61.35
62103;BME280;48077;48.104;11.702;2023-02-17T04:21:38;96273.06;;;5.49;61.69
62103;BME280;48077;48.104;11.702;2023-02-17T04:24:02;96271.06;;;5.51;61.83
62103;BME280;48077;48.104;11.702;2023-02-17T04:26:26;96271.13;;;5.58;61.77
62103;BME280;48077;48.104;11.702;2023-02-17T04:28:49;96279.06;;;5.58;61.60
62103;BME280;48077;48.104;11.702;2023-02-17T04:31:13;96262.13;;;5.52;61.59
62103;BME280;48077;48.104;11.702;2023-02-17T04:33:36;96250.63;;;5.45;61.70
62103;BME280;48077;48.104;11.702;2023-02-17T04:36:00;96246.97;;;5.46;61.61
62103;BME280;48077;48.104;11.702;2023-02-17T04:38:27;96261.75;;;5.55;61.83
62103;BME280;48077;48.104;11.702;2023-02-17T04:40:52;96262.56;;;5.56;62.15
62103;BME280;48077;48.104;11.702;2023-02-17T04:43:16;96248.25;;;5.50;61.65
62103;BME280;48077;48.104;11.702;2023-02-17T04:45:40;96250.34;;;5.55;61.64
62103;BME280;48077;48.104;11.702;2023-02-17T04:48:03;96253.63;;;5.57;61.81
62103;BME280;48077;48.104;11.702;2023-02-17T04:50:27;96264.84;;;5.74;61.37
62103;BME280;48077;48.104;11.702;2023-02-17T04:52:50;96264.47;;;5.77;61.03
62103;BME280;48077;48.104;11.702;2023-02-17T04:55:14;96245.03;;;5.70;61.27
62103;BME280;48077;48.104;11.702;2023-02-17T04:57:37;96243.03;;;5.72;60.89
62103;BME280;48077;48.104;11.702;2023-02-17T05:00:01;96262.00;;;5.90;60.81
62103;BME280;48077;48.104;11.702;2023-02-17T05:02:25;96235.06;;;5.86;60.25
62103;BME280;48077;48.104;11.702;2023-02-17T05:04:53;96242.56;;;5.98;60.26
62103;BME280;48077;48.104;11.702;2023-02-17T05:07:16;96250.50;;;6.13;59.55
62103;BME280;48077;48.104;11.702;2023-02-17T05:09:39;96233.69;;;6.05;59.73
62103;BME280;48077;48.104;11.702;2023-02-17T05:12:03;96238.53;;;6.17;59.57
62103;BME280;48077;48.104;11.702;2023-02-17T05:14:28;96233.66;;;6.20;58.86
62103;BME280;48077;48.104;11.702;2023-02-17T05:16:52;96218.69;;;6.27;58.55
62103;BME280;48077;48.104;11.702;2023-02-17T05:19:15;96238.78;;;6.43;58.55
62103;BME280;48077;48.104;11.702;2023-02-17T05:21:42;96222.84;;;6.37;58.55
62103;BME280;48077;48.104;11.702;2023-02-17T05:24:05;96234.53;;;6.42;58.27
62103;BME280;48077;48.104;11.702;2023-02-17T05:26:29;96215.28;;;6.34;58.03
62103;BME280;48077;48.104;11.702;2023-02-17T05:28:52;96216.97;;;6.41;58.00
62103;BME280;48077;48.104;11.702;2023-02-17T05:31:15;96218.69;;;6.49;57.97
62103;BME280;48077;48.104;11.702;2023-02-17T05:33:39;96219.19;;;6.59;57.29
62103;BME280;48077;48.104;11.702;2023-02-17T05:36:04;96229.28;;;6.71;57.05
62103;BME280;48077;48.104;11.702;2023-02-17T05:38:28;96227.69;;;6.76;57.20
62103;BME280;48077;48.104;11.702;2023-02-17T05:40:51;96234.06;;;6.82;56.80
62103;BME280;48077;48.104;11.702;2023-02-17T05:43:15;96233.44;;;6.80;56.47
62103;BME280;48077;48.104;11.702;2023-02-17T05:45:38;96222.78;;;6.73;56.87
62103;BME280;48077;48.104;11.702;2023-02-17T05:48:04;96215.25;;;6.77;56.74
62103;BME280;48077;48.104;11.702;2023-02-17T05:50:28;96225.50;;;6.80;56.62
62103;BME280;48077;48.104;11.702;2023-02-17T05:52:51;96239.28;;;6.97;55.97
62103;BME280;48077;48.104;11.702;2023-02-17T05:55:15;96221.00;;;6.80;55.86
62103;BME280;48077;48.104;11.702;2023-02-17T05:57:40;96216.91;;;6.78;56.20
62103;BME280;48077;48.104;11.702;2023-02-17T06:00:04;96219.63;;;6.84;56.10
62103;BME280;48077;48.104;11.702;2023-02-17T06:02:28;96234.34;;;6.94;55.82
62103;BME280;48077;48.104;11.702;2023-02-17T06:04:51;96217.91;;;6.77;56.42
62103;BME280;48077;48.104;11.702;2023-02-17T06:07:15;96217.28;;;6.75;55.74
62103;BME280;48077;48.104;11.702;2023-02-17T06:09:38;96232.81;;;6.78;56.46
62103;BME280;48077;48.104;11.702;2023-02-17T06:12:02;96221.59;;;6.76;56.26
62103;BME280;48077;48.104;11.702;2023-02-17T06:14:25;96243.13;;;6.87;56.14
62103;BME280;48077;48.104;11.702;2023-02-17T06:16:49;96227.06;;;6.74;56.43
62103;BME280;48077;48.104;11.702;2023-02-17T06:19:12;96239.63;;;6.87;55.83
62103;BME280;48077;48.104;11.702;2023-02-17T06:21:38;96233.25;;;6.81;56.22
62103;BME280;48077;48.104;11.702;2023-02-17T06:24:01;96246.38;;;6.89;56.00
62103;BME280;48077;48.104;11.702;2023-02-17T06:26:25;96246.63;;;6.95;55.86
62103;BME280;48077;48.104;11.702;2023-02-17T06:28:48;96226.13;;;6.82;55.88
62103;BME280;48077;48.104;11.702;2023-02-17T06:31:12;96243.44;;;7.06;55.51
62103;BME280;48077;48.104;11.702;2023-02-17T06:33:35;96253.16;;;7.20;54.87
62103;BME280;48077;48.104;11.702;2023-02-17T06:35:59;96241.28;;;7.16;55.49
62103;BME280;48077;48.104;11.702;2023-02-17T06:38:22;96215.91;;;7.07;55.00
62103;BME280;48077;48.104;11.702;2023-02-17T06:40:45;96270.69;;;7.49;55.30
62103;BME280;48077;48.104;11.702;2023-02-17T06:43:11;96194.09;;;7.12;56.15
62103;BME280;48077;48.104;11.702;2023-02-17T06:45:37;96161.72;;;6.88;57.61
62103;BME280;48077;48.104;11.702;2023-02-17T06:48:00;96220.34;;;7.28;57.89
62103;BME280;48077;48.104;11.702;2023-02-17T06:50:24;96158.00;;;6.82;58.56
62103;BME280;48077;48.104;11.702;2023-02-17T06:52:47;96277.88;;;7.56;59.41
62103;BME280;48077;48.104;11.702;2023-02-17T06:55:10;96259.59;;;7.39;60.29
62103;BME280;48077;48.104;11.702;2023-02-17T06:57:34;96218.25;;;7.17;61.09
62103;BME280;48077;48.104;11.702;2023-02-17T06:59:57;96255.31;;;7.38;61.07
62103;BME280;48077;48.104;11.702;2023-02-17T07:02:21;96251.38;;;7.27;61.76
62103;BME280;48077;48.104;11.702;2023-02-17T07:04:44;96205.75;;;7.11;61.85
62103;BME280;48077;48.104;11.702;2023-02-17T07:07:09;96231.41;;;7.32;61.08
62103;BME280;48077;48.104;11.702;2023-02-17T07:09:32;96241.16;;;7.31;61.66
62103;BME280;48077;48.104;11.702;2023-02-17T07:11:56;96257.44;;;7.49;61.68
62103;BME280;48077;48.104;11.702;2023-02-17T07:14:23;96193.19;;;7.26;61.87
62103;BME280;48077;48.104;11.702;2023-02-17T07:16:46;96244.44;;;7.61;61.51
62103;BME280;48077;48.104;11.702;2023-02-17T07:19:09;96235.88;;;7.66;61.27
62103;BME280;48077;48.104;11.702;2023-02-17T07:21:33;96236.13;;;7.71;61.60
62103;BME280;48077;48.104;11.702;2023-02-17T07:23:56;96261.38;;;7.95;62.02
62103;BME280;48077;48.104;11.702;2023-02-17T07:26:19;96236.06;;;8.06;62.05
62103;BME280;48077;48.104;11.702;2023-02-17T07:28:43;96226.28;;;8.06;61.93
62103;BME280;48077;48.104;11.702;2023-02-17T07:31:09;96241.28;;;8.27;61.59
62103;BME280;48077;48.104;11.702;2023-02-17T07:33:33;96253.94;;;8.25;61.42
62103;BME280;48077;48.104;11.702;2023-02-17T07:35:57;96257.03;;;8.36;61.35
62103;BME280;48077;48.104;11.702;2023-02-17T07:38:20;96254.34;;;8.29;62.00
62103;BME280;48077;48.104;11.702;2023-02-17T07:40:44;96269.38;;;8.50;62.04
62103;BME280;48077;48.104;11.702;2023-02-17T07:43:07;96265.28;;;8.54;61.75
62103;BME280;48077;48.104;11.702;2023-02-17T07:45:30;96263.91;;;8.65;61.88
62103;BME280;48077;48.104;11.702;2023-02-17T07:47:54;96260.63;;;8.63;61.23
62103;BME280;48077;48.104;11.702;2023-02-17T07:50:18;96194.88;;;8.30;60.89
62103;BME280;48077;48.104;11.702;2023-02-17T07:52:41;96231.19;;;8.71;60.55
62103;BME280;48077;48.104;11.702;2023-02-17T07:55:04;96222.34;;;8.70;60.54
62103;BME280;48077;48.104;11.702;2023-02-17T07:57:29;96250.41;;;8.86;60.63
62103;BME280;48077;48.104;11.702;2023-02-17T07:59:52;96260.66;;;8.96;60.36
62103;BME280;48077;48.104;11.702;2023-02-17T08:02:16;96250.22;;;8.88;59.91
62103;BME280;48077;48.104;11.702;2023-02-17T08:04:39;96246.94;;;8.86;60.19
62103;BME280;48077;48.104;11.702;2023-02-17T08:07:03;96257.16;;;8.96;60.15
62103;BME280;48077;48.104;11.702;2023-02-17T08:09:26;96279.28;;;9.16;59.92
62103;BME280;48077;48.104;11.702;2023-02-17T08:12:15;96258.00;;;9.09;60.17
62103;BME280;48077;48.104;11.702;2023-02-17T08:14:57;96249.41;;;9.07;60.49
62103;BME280;48077;48.104;11.702;2023-02-17T08:17:20;96260.28;;;9.13;61.04
62103;BME280;48077;48.104;11.702;2023-02-17T08:19:43;96287.28;;;9.29;61.13
62103;BME280;48077;48.104;11.702;2023-02-17T08:22:07;96261.28;;;9.18;61.46
62103;BME280;48077;48.104;11.702;2023-02-17T08:24:30;96273.97;;;9.43;60.59
62103;BME280;48077;48.104;11.702;2023-02-17T08:26:53;96259.84;;;9.36;60.69
62103;BME280;48077;48.104;11.702;2023-02-17T08:29:17;96270.50;;;9.42;61.42
62103;BME280;48077;48.104;11.702;2023-02-17T08:31:42;96262.50;;;9.49;60.75
62103;BME280;48077;48.104;11.702;2023-02-17T08:34:07;96258.81;;;9.43;61.67
62103;BME280;48077;48.104;11.702;2023-02-17T08:36:31;96268.84;;;9.55;61.81
62103;BME280;48077;48.104;11.702;2023-02-17T08:38:55;96269.66;;;9.55;62.24
62103;BME280;48077;48.104;11.702;2023-02-17T08:41:31;96264.13;;;9.50;62.26
62103;BME280;48077;48.104;11.702;2023-02-17T08:43:56;96278.25;;;9.64;61.93
62103;BME280;48077;48.104;11.702;2023-02-17T08:46:20;96278.84;;;9.79;60.99
62103;BME280;48077;48.104;11.702;2023-02-17T08:48:44;96279.63;;;9.86;60.99
62103;BME280;48077;48.104;11.702;2023-02-17T08:51:18;96256.06;;;9.77;60.46
62103;BME280;48077;48.104;11.702;2023-02-17T08:53:45;96263.88;;;9.78;61.44
62103;BME280;48077;48.104;11.702;2023-02-17T08:56:11;96278.59;;;9.87;61.41
62103;BME280;48077;48.104;11.702;2023-02-17T08:58:37;96287.59;;;10.00;60.94
62103;BME280;48077;48.104;11.702;2023-02-17T09:01:01;96273.66;;;9.98;61.33
62103;BME280;48077;48.104;11.702;2023-02-17T09:03:25;96267.72;;;9.96;62.05
62103;BME280;48077;48.104;11.702;2023-02-17T09:05:48;96277.16;;;9.91;62.24
62103;BME280;48077;48.104;11.702;2023-02-17T09:08:11;96275.69;;;9.96;62.02
62103;BME280;48077;48.104;11.702;2023-02-17T09:10:36;96294.75;;;10.06;62.44
62103;BME280;48077;48.104;11.702;2023-02-17T09:12:59;96272.44;;;10.00;62.75
62103;BME280;48077;48.104;11.702;2023-02-17T09:15:23;96286.75;;;10.06;61.82
62103;BME280;48077;48.104;11.702;2023-02-17T09:17:46;96285.09;;;10.11;62.49
62103;BME280;48077;48.104;11.702;2023-02-17T09:20:10;96279.19;;;10.03;62.74
62103;BME280;48077;48.104;11.702;2023-02-17T09:22:33;96301.69;;;10.13;62.46
62103;BME280;48077;48.104;11.702;2023-02-17T09:24:57;96314.22;;;10.13;64.06
62103;BME280;48077;48.104;11.702;2023-02-17T09:27:20;96323.44;;;10.04;68.06
62103;BME280;48077;48.104;11.702;2023-02-17T09:29:44;96311.78;;;9.91;69.91
62103;BME280;48077;48.104;11.702;2023-02-17T09:32:07;96288.28;;;9.62;70.41
62103;BME280;48077;48.104;11.702;2023-02-17T09:34:36;96270.28;;;9.44;70.71
62103;BME280;48077;48.104;11.702;2023-02-17T09:36:59;96201.94;;;9.04;71.04
62103;BME280;48077;48.104;11.702;2023-02-17T09:39:23;96264.34;;;9.35;69.61
62103;BME280;48077;48.104;11.702;2023-02-17T09:41:49;96273.97;;;9.43;68.80
62103;BME280;48077;48.104;11.702;2023-02-17T09:44:25;96312.63;;;9.85;68.43
62103;BME280;48077;48.104;11.702;2023-02-17T09:46:59;96308.75;;;9.81;68.61
62103;BME280;48077;48.104;11.702;2023-02-17T09:49:31;96323.69;;;9.89;68.42
62103;BME280;48077;48.104;11.702;2023-02-17T09:52:01;96319.00;;;9.84;68.49
62103;BME280;48077;48.104;11.702;2023-02-17T09:54:38;96299.94;;;9.81;68.30
62103;BME280;48077;48.104;11.702;2023-02-17T09:57:07;96319.59;;;9.93;68.46
62103;BME280;48077;48.104;11.702;2023-02-17T09:59:39;96306.25;;;9.93;67.49
62103;BME280;48077;48.104;11.702;2023-02-17T10:02:20;96308.09;;;9.99;67.58
62103;BME280;48077;48.104;11.702;2023-02-17T10:04:47;96297.03;;;9.96;67.30
62103;BME280;48077;48.104;11.702;2023-02-17T10:07:16;96282.09;;;9.88;66.08
62103;BME280;48077;48.104;11.702;2023-02-17T10:09:50;96307.00;;;10.20;65.72
62103;BME280;48077;48.104;11.702;2023-02-17T10:12:18;96316.00;;;10.26;66.01
62103;BME280;48077;48.104;11.702;2023-02-17T10:14:51;96307.22;;;10.32;64.72
62103;BME280;48077;48.104;11.702;2023-02-17T10:17:30;96301.38;;;10.55;64.21
62103;BME280;48077;48.104;11.702;2023-02-17T10:22:27;96260.72;;;10.60;63.91
62103;BME280;48077;48.104;11.702;2023-02-17T10:24:50;96275.06;;;10.97;62.10
62103;BME280;48077;48.104;11.702;2023-02-17T10:27:27;96290.63;;;11.32;61.64
62103;BME280;48077;48.104;11.702;2023-02-17T10:30:07;96289.53;;;11.40;61.12
62103;BME280;48077;48.104;11.702;2023-02-17T10:35:13;96296.16;;;11.30;61.07
62103;BME280;48077;48.104;11.702;2023-02-17T10:40:19;96300.16;;;11.21;61.54
62103;BME280;48077;48.104;11.702;2023-02-17T10:42:44;96288.88;;;11.19;61.78
62103;BME280;48077;48.104;11.702;2023-02-17T10:45:25;96274.78;;;11.05;61.35
62103;BME280;48077;48.104;11.702;2023-02-17T10:47:58;96283.94;;;11.16;61.05
62103;BME280;48077;48.104;11.702;2023-02-17T10:50:24;96285.66;;;11.36;59.75
62103;BME280;48077;48.104;11.702;2023-02-17T10:52:49;96246.81;;;11.14;60.29
62103;BME280;48077;48.104;11.702;2023-02-17T10:55:20;96287.41;;;11.48;59.88
62103;BME280;48077;48.104;11.702;2023-02-17T10:57:49;96278.84;;;11.65;58.75
62103;BME280;48077;48.104;11.702;2023-02-17T11:00:15;96265.84;;;11.87;57.67
62103;BME280;48077;48.104;11.702;2023-02-17T11:02:42;96276.09;;;12.15;57.31
62103;BME280;48077;48.104;11.702;2023-02-17T11:05:06;96266.91;;;12.23;56.73
62103;BME280;48077;48.104;11.702;2023-02-17T11:09:59;96257.53;;;12.50;55.39
62103;BME280;48077;48.104;11.702;2023-02-17T11:12:36;96258.72;;;12.85;54.43
62103;BME280;48077;48.104;11.702;2023-02-17T11:15:03;96247.56;;;12.88;54.42
62103;BME280;48077;48.104;11.702;2023-02-17T11:17:33;96265.97;;;12.96;54.21
62103;BME280;48077;48.104;11.702;2023-02-17T11:20:00;96235.84;;;12.70;54.40
62103;BME280;48077;48.104;11.702;2023-02-17T11:22:34;96266.44;;;12.63;54.42
62103;BME280;48077;48.104;11.702;2023-02-17T11:24:59;96257.47;;;12.39;55.42
62103;BME280;48077;48.104;11.702;2023-02-17T11:27:24;96256.38;;;12.28;56.07
62103;BME280;48077;48.104;11.702;2023-02-17T11:29:48;96265.66;;;12.44;55.90
62103;BME280;48077;48.104;11.702;2023-02-17T11:32:11;96260.25;;;12.62;55.30
62103;BME280;48077;48.104;11.702;2023-02-17T11:34:37;96267.47;;;12.62;55.10
62103;BME280;48077;48.104;11.702;2023-02-17T11:39:38;96244.13;;;12.69;54.42
62103;BME280;48077;48.104;11.702;2023-02-17T11:42:02;96238.53;;;12.70;54.55
62103;BME280;48077;48.104;11.702;2023-02-17T11:44:35;96237.00;;;12.63;54.08
62103;BME280;48077;48.104;11.702;2023-02-17T11:47:07;96256.78;;;12.92;53.62
62103;BME280;48077;48.104;11.702;2023-02-17T11:49:48;96232.34;;;13.00;53.03
62103;BME280;48077;48.104;11.702;2023-02-17T11:55:11;96217.75;;;12.84;54.19
62103;BME280;48077;48.104;11.702;2023-02-17T11:57:40;96227.06;;;12.82;54.10
62103;BME280;48077;48.104;11.702;2023-02-17T12:00:23;96213.66;;;12.82;53.81
62103;BME280;48077;48.104;11.702;2023-02-17T12:09:02;96228.22;;;12.86;54.66
62103;BME280;48077;48.104;11.702;2023-02-17T12:11:56;96236.53;;;12.96;54.25
62103;BME280;48077;48.104;11.702;2023-02-17T12:20:31;96220.91;;;12.93;55.23
62103;BME280;48077;48.104;11.702;2023-02-17T12:28:52;96217.34;;;13.23;53.98
62103;BME280;48077;48.104;11.702;2023-02-17T12:31:35;96215.28;;;13.36;54.02
62103;BME280;48077;48.104;11.702;2023-02-17T12:34:20;96190.66;;;13.04;54.87
62103;BME280;48077;48.104;11.702;2023-02-17T12:36:47;96191.00;;;12.96;55.34
62103;BME280;48077;48.104;11.702;2023-02-17T12:39:17;96207.63;;;12.86;55.89
62103;BME280;48077;48.104;11.702;2023-02-17T12:41:57;96208.88;;;12.72;56.74
62103;BME280;48077;48.104;11.702;2023-02-17T12:44:27;96198.13;;;12.60;57.81
62103;BME280;48077;48.104;11.702;2023-02-17T12:46:55;96195.81;;;12.64;58.24
62103;BME280;48077;48.104;11.702;2023-02-17T12:49:33;96189.16;;;12.54;57.70
62103;BME280;48077;48.104;11.702;2023-02-17T12:52:05;96195.00;;;12.63;57.94
62103;BME280;48077;48.104;11.702;2023-02-17T12:57:13;96203.78;;;12.52;58.23
62103;BME280;48077;48.104;11.702;2023-02-17T12:59:39;96189.56;;;12.40;58.55
62103;BME280;48077;48.104;11.702;2023-02-17T13:02:15;96197.59;;;12.40;58.86
62103;BME280;48077;48.104;11.702;2023-02-17T13:04:40;96204.50;;;12.29;59.62
62103;BME280;48077;48.104;11.702;2023-02-17T13:07:26;96223.28;;;12.41;59.81
62103;BME280;48077;48.104;11.702;2023-02-17T13:09:55;96220.19;;;12.44;59.43
62103;BME280;48077;48.104;11.702;2023-02-17T13:14:50;96212.69;;;12.34;59.56
62103;BME280;48077;48.104;11.702;2023-02-17T13:17:27;96209.06;;;12.28;59.53
62103;BME280;48077;48.104;11.702;2023-02-17T13:20:19;96192.72;;;12.18;59.68
62103;BME280;48077;48.104;11.702;2023-02-17T13:22:45;96186.19;;;12.14;60.49
62103;BME280;48077;48.104;11.702;2023-02-17T13:25:11;96183.22;;;12.04;60.51
62103;BME280;48077;48.104;11.702;2023-02-17T13:27:37;96210.25;;;12.14;60.52
62103;BME280;48077;48.104;11.702;2023-02-17T13:30:23;96190.06;;;12.00;60.80
62103;BME280;48077;48.104;11.702;2023-02-17T13:33:02;96213.53;;;12.16;60.85
62103;BME280;48077;48.104;11.702;2023-02-17T13:37:49;96192.66;;;11.88;61.55
62103;BME280;48077;48.104;11.702;2023-02-17T13:42:41;96226.09;;;11.97;62.09
62103;BME280;48077;48.104;11.702;2023-02-17T13:45:48;96237.09;;;11.89;62.68
62103;BME280;48077;48.104;11.702;2023-02-17T13:53:26;96209.22;;;11.78;63.33
62103;BME280;48077;48.104;11.702;2023-02-17T13:55:51;96204.38;;;11.87;62.61
62103;BME280;48077;48.104;11.702;2023-02-17T13:58:21;96201.66;;;11.75;62.90